Flight Track Log - Related Links

Times and Time Zones

All times are in EDT time to prevent confusion due to time zone crossing. See the UAL4108 flight status page for this flight to view local times or setup timezone preferences in your user account.

Time Position Orientation Groundspeed Altitude Reporting Facility
EDT Latitude Longitude Course Direction KTS MPH feet Rate Location/Type
Sun 03:04:34 PM 40.6333 -74.2333 246° West 209 241 2,800  Level New York TRACON
Sun 03:06:00 PM 40.6076 -74.6584 257° West  Level FlightAware Approximate
Sun 03:06:42 PM 40.6053 -74.4147 259° West 236 272 7,500  Level New York Center
Sun 03:07:00 PM 40.5862 -74.7832 258° West  Level FlightAware Approximate
Sun 03:07:43 PM 40.6008 -74.4964 266° West 244 281 9,500  Level New York Center
Sun 03:08:00 PM 40.5667 -74.9084 270° West  Level FlightAware Approximate
Sun 03:08:43 PM 40.6253 -74.5800 291° West 244 281 11,000  Level New York Center
Sun 03:09:44 PM 40.6658 -74.6778 299° West 267 307 11,900 966 Climbing New York Center
Sun 03:10:41 PM 40.6317 -74.7633 242° Southwest 262 302 12,900 1,169 Climbing New York Center
Sun 03:11:42 PM 40.6075 -74.8578 251° West 286 329 14,200 1,388 Climbing New York Center
Sun 03:12:42 PM 40.5717 -74.9867 250° West 308 354 15,700 1,339 Climbing New York Center
Sun 03:13:43 PM 40.5289 -75.0769 238° Southwest 308 354 16,900 1,488 Climbing New York Center
Sun 03:14:43 PM 40.4889 -75.1453 232° Southwest 303 349 18,700 1,983 Climbing New York Center
Sun 03:15:44 PM 40.4358 -75.2267 229° Southwest 293 337 20,900 1,932 Climbing New York Center
Sun 03:16:41 PM 40.3914 -75.2972 230° Southwest 273 314 22,500 1,322 Climbing New York Center
Sun 03:17:42 PM 40.3447 -75.3706 230° Southwest 268 308 23,500 843 Climbing New York Center
Sun 03:18:42 PM 40.2958 -75.4489 231° Southwest 273 314 24,200 650 Climbing New York Center
Sun 03:19:42 PM 40.2447 -75.5297 230° Southwest 278 320 24,800 793 Climbing New York Center
Sun 03:20:43 PM 40.1908 -75.6267 234° Southwest 299 344 25,800 958 Climbing New York Center
Sun 03:21:41 PM 40.1475 -75.7158 238° Southwest 304 350 26,700 1,059 Climbing New York Center
Sun 03:22:42 PM 40.1042 -75.8025 237° Southwest 294 338 27,900 1,180 Climbing New York Center
Sun 03:23:43 PM 40.0608 -75.8861 236° Southwest 294 338 29,100 984 Climbing New York Center
Sun 03:25:51 PM 39.9772 -76.0544 237° Southwest 287 330 31,000 921 Climbing Washington Center
Sun 03:26:52 PM 39.9333 -76.1353 235° Southwest 280 322 32,000 1,033 Climbing Washington Center
Sun 03:27:53 PM 39.8933 -76.2242 240° Southwest 270 311 33,100 885 Climbing Washington Center
Sun 03:28:54 PM 39.8469 -76.3050 233° Southwest 275 316 33,800 454 Climbing Washington Center
Sun 03:29:52 PM 39.8047 -76.3883 237° Southwest 275 316 34,000 101 Climbing Washington Center
Sun 03:30:53 PM 39.7583 -76.4769 236° Southwest 287 330 34,000  Level Washington Center
Sun 03:31:54 PM 39.7097 -76.5600 233° Southwest 299 344 34,000  Level Washington Center
Sun 03:32:51 PM 39.6589 -76.6589 236° Southwest 321 369 34,000  Level Washington Center
Sun 03:33:52 PM 39.6081 -76.7606 237° Southwest 332 382 34,000  Level Washington Center
Sun 03:34:53 PM 39.5550 -76.8592 235° Southwest 337 388 34,000  Level Washington Center
Sun 03:35:54 PM 39.5017 -76.9631 236° Southwest 342 394 34,000  Level Washington Center
Sun 03:36:54 PM 39.4297 -77.0506 223° Southwest 353 406 34,000  Level Washington Center
Sun 03:37:52 PM 39.3517 -77.1294 218° Southwest 353 406 34,000  Level Washington Center
Sun 03:38:52 PM 39.2736 -77.2108 219° Southwest 363 418 34,000  Level Washington Center
Sun 03:39:53 PM 39.1953 -77.2922 219° Southwest 363 418 34,000  Level Washington Center
Sun 03:40:54 PM 39.1192 -77.3733 220° Southwest 363 418 34,000  Level Washington Center
Sun 03:41:52 PM 39.0428 -77.4517 219° Southwest 358 412 34,000  Level Washington Center
Sun 03:42:52 PM 38.9622 -77.5378 220° Southwest 358 412 34,000  Level Washington Center
Sun 03:43:54 PM 38.8839 -77.6158 218° Southwest 358 412 34,000  Level Washington Center
Sun 03:44:54 PM 38.8158 -77.6883 220° Southwest 358 412 34,000  Level Washington Center
Sun 03:45:52 PM 38.7267 -77.7764 218° Southwest 358 412 34,000  Level Washington Center
Sun 03:46:53 PM 38.6522 -77.8567 220° Southwest 358 412 34,000  Level Washington Center
Sun 03:47:54 PM 38.5900 -77.9503 230° Southwest 350 403 34,000  Level Washington Center
Sun 03:48:52 PM 38.5361 -78.0469 235° Southwest 350 403 34,000  Level Washington Center
Sun 03:49:53 PM 38.4797 -78.1406 232° Southwest 338 389 34,000  Level Washington Center
Sun 03:50:54 PM 38.4258 -78.2339 234° Southwest 333 383 34,000  Level Washington Center
Sun 03:51:52 PM 38.3694 -78.3272 232° Southwest 338 389 34,000  Level Washington Center
Sun 03:52:52 PM 38.3131 -78.4233 233° Southwest 338 389 34,000  Level Washington Center
Sun 03:53:53 PM 38.2672 -78.5008 233° Southwest 338 389 34,000  Level Washington Center
Sun 03:54:54 PM 38.2064 -78.6067 234° Southwest 338 389 34,000  Level Washington Center
Sun 03:55:54 PM 38.1494 -78.7047 234° Southwest 344 396 34,000  Level Washington Center
Sun 03:56:51 PM 38.0908 -78.8000 232° Southwest 349 402 34,000  Level Washington Center
Sun 03:57:52 PM 38.0339 -78.8978 234° Southwest 349 402 34,000  Level Washington Center
Sun 03:58:53 PM 37.9683 -79.0028 232° Southwest 355 409 34,000  Level Washington Center
Sun 03:59:53 PM 37.9092 -79.1003 232° Southwest 355 409 34,000  Level Washington Center
Sun 04:00:54 PM 37.8439 -79.1919 228° Southwest 350 403 34,000  Level Washington Center
Sun 04:01:54 PM 37.7853 -79.2731 228° Southwest 355 409 34,000  Level Washington Center
Sun 04:02:52 PM 37.7197 -79.3644 228° Southwest 355 409 34,000  Level Washington Center
Sun 04:03:52 PM 37.6456 -79.4631 226° Southwest 355 409 34,000  Level Washington Center
Sun 04:04:52 PM 37.5869 -79.5414 227° Southwest 360 414 34,000  Level Washington Center
Sun 04:05:53 PM 37.5144 -79.6450 229° Southwest 355 409 34,000  Level Washington Center
Sun 04:06:53 PM 37.4556 -79.7256 227° Southwest 355 409 34,000  Level Washington Center
Sun 04:07:51 PM 37.3875 -79.8186 227° Southwest 361 415 34,000  Level Washington Center
Sun 04:08:52 PM 37.3197 -79.9089 227° Southwest 361 415 34,000  Level Washington Center
Sun 04:09:52 PM 37.2472 -80.0092 228° Southwest 361 415 34,000  Level Washington Center
Sun 04:10:53 PM 37.1814 -80.0967 227° Southwest 361 415 34,000  Level Washington Center
Sun 04:11:53 PM 37.1131 -80.1889 227° Southwest 361 415 34,000  Level Washington Center
Sun 04:12:22 PM 37.0833 -80.2247 224° Southwest 357 411 34,000  Level Atlanta Center
Sun 04:13:22 PM 37.0175 -80.3164 228° Southwest 362 417 34,000  Level Atlanta Center
Sun 04:14:22 PM 36.9431 -80.4133 226° Southwest 362 417 34,000  Level Atlanta Center
Sun 04:15:22 PM 36.8750 -80.5047 227° Southwest 357 411 34,000  Level Atlanta Center
Sun 04:16:22 PM 36.8067 -80.5933 226° Southwest 357 411 34,000  Level Atlanta Center
Sun 04:17:22 PM 36.7461 -80.6736 227° Southwest 352 405 34,000  Level Atlanta Center
Sun 04:18:22 PM 36.6800 -80.7644 228° Southwest 352 405 34,000  Level Atlanta Center
Sun 04:19:22 PM 36.6114 -80.8550 227° Southwest 357 411 34,000  Level Atlanta Center
Sun 04:20:22 PM 36.5428 -80.9456 227° Southwest 357 411 34,000  Level Atlanta Center
Sun 04:21:22 PM 36.4742 -81.0361 227° Southwest 357 411 34,000  Level Atlanta Center
Sun 04:22:22 PM 36.4056 -81.1289 227° Southwest 357 411 34,000  Level Atlanta Center
Sun 04:23:22 PM 36.3386 -81.2164 226° Southwest 357 411 34,000  Level Atlanta Center
Sun 04:24:22 PM 36.2617 -81.3169 227° Southwest 357 411 34,000  Level Atlanta Center
Sun 04:25:22 PM 36.1928 -81.4067 226° Southwest 357 411 34,000  Level Atlanta Center
Sun 04:26:22 PM 36.1258 -81.4964 227° Southwest 357 411 34,000  Level Atlanta Center
Sun 04:27:22 PM 36.0547 -81.5911 227° Southwest 357 411 34,000  Level Atlanta Center
Sun 04:28:22 PM 35.9875 -81.6778 226° Southwest 357 411 34,000  Level Atlanta Center
Sun 04:29:22 PM 35.9183 -81.7644 225° Southwest 357 411 34,000  Level Atlanta Center
Sun 04:30:22 PM 35.8492 -81.8561 227° Southwest 357 411 34,000  Level Atlanta Center
Sun 04:31:22 PM 35.7817 -81.9422 226° Southwest 351 404 34,000  Level Atlanta Center
Sun 04:32:22 PM 35.7103 -82.0336 226° Southwest 362 417 34,000 -200 Level Atlanta Center
Sun 04:33:22 PM 35.6386 -82.1172 223° Southwest 362 417 33,600 -650 Descending Atlanta Center
Sun 04:34:22 PM 35.5667 -82.2006 223° Southwest 357 411 32,700 -950 Descending Atlanta Center
Sun 04:35:22 PM 35.4908 -82.2889 223° Southwest 368 423 31,700 -1,000 Descending Atlanta Center
Sun 04:36:22 PM 35.4128 -82.3747 222° Southwest 373 429 30,700 -900 Descending Atlanta Center
Sun 04:37:22 PM 35.3431 -82.4550 223° Southwest 373 429 29,900 -900 Descending Atlanta Center
Sun 04:38:22 PM 35.2647 -82.5456 223° Southwest 379 436 28,900 -1,050 Descending Atlanta Center
Sun 04:39:22 PM 35.1761 -82.6411 221° Southwest 387 445 27,800 -1,050 Descending Atlanta Center
Sun 04:40:22 PM 35.0958 -82.7289 222° Southwest 387 445 26,800 -1,000 Descending Atlanta Center
Sun 04:41:22 PM 35.0194 -82.8139 222° Southwest 387 445 25,800 -1,000 Descending Atlanta Center
Sun 04:42:22 PM 34.9492 -82.8958 224° Southwest 382 440 24,800 -900 Descending Atlanta Center
Sun 04:43:22 PM 34.8750 -82.9781 222° Southwest 382 440 24,000 -400 Descending Atlanta Center
Sun 04:44:22 PM 34.7922 -83.0700 222° Southwest 382 440 24,000  Level Atlanta Center
Sun 04:45:22 PM 34.7136 -83.1569 222° Southwest 382 440 24,000  Level Atlanta Center
Sun 04:46:22 PM 34.6389 -83.2436 224° Southwest 377 434 24,000 -250 Level Atlanta Center
Sun 04:47:22 PM 34.5622 -83.3250 221° Southwest 377 434 23,500 -1,200 Descending Atlanta Center
Sun 04:48:22 PM 34.4836 -83.4114 222° Southwest 377 434 21,600 -1,950 Descending Atlanta Center
Sun 04:49:22 PM 34.4067 -83.4975 223° Southwest 377 434 19,600 -1,950 Descending Atlanta Center
Sun 04:50:22 PM 34.3339 -83.5783 223° Southwest 377 434 17,700 -2,000 Descending Atlanta Center
Sun 04:51:22 PM 34.2569 -83.6567 220° Southwest 366 421 15,600 -2,050 Descending Atlanta Center
Sun 04:52:22 PM 34.1842 -83.7375 223° Southwest 366 421 13,600 -1,700 Descending Atlanta Center
Sun 04:53:22 PM 34.1239 -83.8056 223° Southwest 353 406 12,200 -800 Descending Atlanta Center
Sun 04:54:22 PM 34.0614 -83.8708 221° Southwest 320 368 12,000 -650 Descending Atlanta Center
Sun 04:55:22 PM 33.9883 -83.9036 200° South 290 334 10,900 -1,250 Descending Atlanta Center
Sun 04:56:22 PM 33.9153 -83.9336 199° South 285 328 9,500 -1,200 Descending Atlanta Center
Sun 04:57:22 PM 33.8486 -83.9789 209° Southwest 275 316 8,500 -750 Descending Atlanta Center
Sun 04:58:22 PM 33.7797 -84.0264 210° Southwest 275 316 8,000 -500 Descending Atlanta Center
Sun 04:59:22 PM 33.7150 -84.0689 209° Southwest 267 307 7,500 -800 Descending Atlanta Center
Sun 05:00:22 PM 33.6586 -84.1136 213° Southwest 267 307 6,400 -1,140 Descending Atlanta Center
Sun 05:01:23 PM 33.6500 -84.1667 259° West 178 205 5,200 -1,240 Descending Atlanta TRACON
Sun 05:02:23 PM 33.6500 -84.2333 270° West 180 207 3,900 -1,050 Descending Atlanta TRACON
Sun 05:03:23 PM 33.6500 -84.2833 270° West 175 201 3,100 -850 Descending Atlanta TRACON
Sun 05:04:23 PM 33.6500 -84.3333 270° West 132 152 2,200 -900 Descending Atlanta TRACON

Login

Don't have an account? Register now (free) for customized features, flight alerts, and more!